sensor_id;sensor_type;location;lat;lon;timestamp;temperature;humidity
11142;DHT22;5625;50.122;19.864;2024-03-25T00:02:10;3.70;1.00
11142;DHT22;5625;50.122;19.864;2024-03-25T00:04:38;3.70;1.00
11142;DHT22;5625;50.122;19.864;2024-03-25T00:07:05;3.70;1.00
11142;DHT22;5625;50.122;19.864;2024-03-25T00:09:32;3.70;1.00
11142;DHT22;5625;50.122;19.864;2024-03-25T00:11:59;3.60;1.00
11142;DHT22;5625;50.122;19.864;2024-03-25T00:14:26;3.60;1.00
11142;DHT22;5625;50.122;19.864;2024-03-25T00:16:52;3.60;1.00
11142;DHT22;5625;50.122;19.864;2024-03-25T00:19:19;3.60;1.00
11142;DHT22;5625;50.122;19.864;2024-03-25T00:21:46;3.60;1.00
11142;DHT22;5625;50.122;19.864;2024-03-25T00:24:14;3.50;1.00
11142;DHT22;5625;50.122;19.864;2024-03-25T00:26:40;3.50;1.00
11142;DHT22;5625;50.122;19.864;2024-03-25T00:29:07;3.50;1.00
11142;DHT22;5625;50.122;19.864;2024-03-25T00:31:34;3.40;1.00
11142;DHT22;5625;50.122;19.864;2024-03-25T00:34:01;3.40;1.00
11142;DHT22;5625;50.122;19.864;2024-03-25T00:36:27;3.40;1.00
11142;DHT22;5625;50.122;19.864;2024-03-25T00:38:54;3.40;1.00
11142;DHT22;5625;50.122;19.864;2024-03-25T00:41:22;3.40;1.00
11142;DHT22;5625;50.122;19.864;2024-03-25T00:43:49;3.40;1.00
11142;DHT22;5625;50.122;19.864;2024-03-25T00:46:15;3.40;1.00
11142;DHT22;5625;50.122;19.864;2024-03-25T00:48:43;3.40;1.00
11142;DHT22;5625;50.122;19.864;2024-03-25T00:51:09;3.30;1.00
11142;DHT22;5625;50.122;19.864;2024-03-25T00:53:37;3.30;1.00
11142;DHT22;5625;50.122;19.864;2024-03-25T00:56:03;3.40;1.00
11142;DHT22;5625;50.122;19.864;2024-03-25T00:58:32;3.40;1.00
11142;DHT22;5625;50.122;19.864;2024-03-25T01:00:58;3.30;1.00
11142;DHT22;5625;50.122;19.864;2024-03-25T01:03:25;3.30;1.00
11142;DHT22;5625;50.122;19.864;2024-03-25T01:05:51;3.30;1.00
11142;DHT22;5625;50.122;19.864;2024-03-25T01:08:19;3.30;1.00
11142;DHT22;5625;50.122;19.864;2024-03-25T01:10:45;3.40;1.00
11142;DHT22;5625;50.122;19.864;2024-03-25T01:13:13;3.40;1.00
11142;DHT22;5625;50.122;19.864;2024-03-25T01:15:40;3.30;1.00
11142;DHT22;5625;50.122;19.864;2024-03-25T01:18:07;3.30;1.00
11142;DHT22;5625;50.122;19.864;2024-03-25T01:20:34;3.30;1.00
11142;DHT22;5625;50.122;19.864;2024-03-25T01:23:01;3.30;1.00
11142;DHT22;5625;50.122;19.864;2024-03-25T01:25:27;3.30;1.00
11142;DHT22;5625;50.122;19.864;2024-03-25T01:27:54;3.30;1.00
11142;DHT22;5625;50.122;19.864;2024-03-25T01:30:21;3.30;1.00
11142;DHT22;5625;50.122;19.864;2024-03-25T01:32:49;3.30;1.00
11142;DHT22;5625;50.122;19.864;2024-03-25T01:35:16;3.30;1.90
11142;DHT22;5625;50.122;19.864;2024-03-25T01:37:43;3.30;7.60
11142;DHT22;5625;50.122;19.864;2024-03-25T01:40:09;3.30;17.30
11142;DHT22;5625;50.122;19.864;2024-03-25T01:42:37;3.30;20.70
11142;DHT22;5625;50.122;19.864;2024-03-25T01:45:04;3.30;28.30
11142;DHT22;5625;50.122;19.864;2024-03-25T01:47:32;3.30;38.20
11142;DHT22;5625;50.122;19.864;2024-03-25T01:50:03;3.40;35.80
11142;DHT22;5625;50.122;19.864;2024-03-25T01:52:30;3.40;42.10
11142;DHT22;5625;50.122;19.864;2024-03-25T01:54:57;3.40;40.50
11142;DHT22;5625;50.122;19.864;2024-03-25T01:57:25;3.40;41.80
11142;DHT22;5625;50.122;19.864;2024-03-25T01:59:52;3.40;40.00
11142;DHT22;5625;50.122;19.864;2024-03-25T02:02:20;3.40;36.30
11142;DHT22;5625;50.122;19.864;2024-03-25T02:04:46;3.40;31.60
11142;DHT22;5625;50.122;19.864;2024-03-25T02:07:15;3.40;35.70
11142;DHT22;5625;50.122;19.864;2024-03-25T02:09:42;3.40;31.60
11142;DHT22;5625;50.122;19.864;2024-03-25T02:12:10;3.40;31.90
11142;DHT22;5625;50.122;19.864;2024-03-25T02:14:37;3.40;36.50
11142;DHT22;5625;50.122;19.864;2024-03-25T02:17:04;3.40;37.30
11142;DHT22;5625;50.122;19.864;2024-03-25T02:19:32;3.40;38.80
11142;DHT22;5625;50.122;19.864;2024-03-25T02:21:59;3.40;36.30
11142;DHT22;5625;50.122;19.864;2024-03-25T02:24:27;3.40;35.00
11142;DHT22;5625;50.122;19.864;2024-03-25T02:26:56;3.40;32.30
11142;DHT22;5625;50.122;19.864;2024-03-25T02:29:22;3.50;29.40
11142;DHT22;5625;50.122;19.864;2024-03-25T02:31:49;3.50;29.90
11142;DHT22;5625;50.122;19.864;2024-03-25T02:34:18;3.50;27.80
11142;DHT22;5625;50.122;19.864;2024-03-25T02:36:46;3.50;37.50
11142;DHT22;5625;50.122;19.864;2024-03-25T02:39:12;3.50;37.10
11142;DHT22;5625;50.122;19.864;2024-03-25T02:41:40;3.50;32.70
11142;DHT22;5625;50.122;19.864;2024-03-25T02:44:08;3.50;31.70
11142;DHT22;5625;50.122;19.864;2024-03-25T02:46:35;3.50;29.30
11142;DHT22;5625;50.122;19.864;2024-03-25T02:49:02;3.60;34.60
11142;DHT22;5625;50.122;19.864;2024-03-25T02:51:29;3.50;34.50
11142;DHT22;5625;50.122;19.864;2024-03-25T02:53:55;3.50;34.80
11142;DHT22;5625;50.122;19.864;2024-03-25T02:56:22;3.60;42.40
11142;DHT22;5625;50.122;19.864;2024-03-25T02:58:48;3.60;38.80
11142;DHT22;5625;50.122;19.864;2024-03-25T03:01:17;3.60;37.00
11142;DHT22;5625;50.122;19.864;2024-03-25T03:03:44;3.60;33.90
11142;DHT22;5625;50.122;19.864;2024-03-25T03:06:11;3.60;34.80
11142;DHT22;5625;50.122;19.864;2024-03-25T03:08:37;3.60;29.10
11142;DHT22;5625;50.122;19.864;2024-03-25T03:11:04;3.60;30.60
11142;DHT22;5625;50.122;19.864;2024-03-25T03:13:31;3.50;29.00
11142;DHT22;5625;50.122;19.864;2024-03-25T03:15:58;3.50;29.50
11142;DHT22;5625;50.122;19.864;2024-03-25T03:18:25;3.50;29.60
11142;DHT22;5625;50.122;19.864;2024-03-25T03:20:52;3.50;34.00
11142;DHT22;5625;50.122;19.864;2024-03-25T03:23:21;3.50;35.70
11142;DHT22;5625;50.122;19.864;2024-03-25T03:25:48;3.50;38.40
11142;DHT22;5625;50.122;19.864;2024-03-25T03:28:15;3.50;48.10
11142;DHT22;5625;50.122;19.864;2024-03-25T03:30:42;3.50;52.80
11142;DHT22;5625;50.122;19.864;2024-03-25T03:33:08;3.50;57.40
11142;DHT22;5625;50.122;19.864;2024-03-25T03:35:36;3.40;68.80
11142;DHT22;5625;50.122;19.864;2024-03-25T03:38:03;3.50;73.80
11142;DHT22;5625;50.122;19.864;2024-03-25T03:40:32;3.50;78.90
11142;DHT22;5625;50.122;19.864;2024-03-25T03:42:58;3.50;84.00
11142;DHT22;5625;50.122;19.864;2024-03-25T03:45:25;3.50;80.60
11142;DHT22;5625;50.122;19.864;2024-03-25T03:47:52;3.50;83.20
11142;DHT22;5625;50.122;19.864;2024-03-25T03:50:19;3.50;82.70
11142;DHT22;5625;50.122;19.864;2024-03-25T03:52:46;3.50;85.00
11142;DHT22;5625;50.122;19.864;2024-03-25T03:55:14;3.50;91.00
11142;DHT22;5625;50.122;19.864;2024-03-25T03:57:40;3.50;81.70
11142;DHT22;5625;50.122;19.864;2024-03-25T04:00:09;3.50;77.30
11142;DHT22;5625;50.122;19.864;2024-03-25T04:02:37;3.50;79.50
11142;DHT22;5625;50.122;19.864;2024-03-25T04:05:05;3.50;81.90
11142;DHT22;5625;50.122;19.864;2024-03-25T04:07:32;3.50;90.40
11142;DHT22;5625;50.122;19.864;2024-03-25T04:10:01;3.50;86.80
11142;DHT22;5625;50.122;19.864;2024-03-25T04:12:27;3.50;82.80
11142;DHT22;5625;50.122;19.864;2024-03-25T04:14:54;3.50;75.70
11142;DHT22;5625;50.122;19.864;2024-03-25T04:17:21;3.50;70.20
11142;DHT22;5625;50.122;19.864;2024-03-25T04:19:48;3.40;68.50
11142;DHT22;5625;50.122;19.864;2024-03-25T04:22:15;3.40;66.70
11142;DHT22;5625;50.122;19.864;2024-03-25T04:24:43;3.40;61.20
11142;DHT22;5625;50.122;19.864;2024-03-25T04:27:10;3.40;55.80
11142;DHT22;5625;50.122;19.864;2024-03-25T04:29:38;3.40;49.20
11142;DHT22;5625;50.122;19.864;2024-03-25T04:32:04;3.40;51.40
11142;DHT22;5625;50.122;19.864;2024-03-25T04:34:31;3.30;57.20
11142;DHT22;5625;50.122;19.864;2024-03-25T04:36:58;3.40;56.80
11142;DHT22;5625;50.122;19.864;2024-03-25T04:39:25;3.30;55.00
11142;DHT22;5625;50.122;19.864;2024-03-25T04:41:51;3.30;57.40
11142;DHT22;5625;50.122;19.864;2024-03-25T04:44:19;3.30;52.10
11142;DHT22;5625;50.122;19.864;2024-03-25T04:46:45;3.30;52.70
11142;DHT22;5625;50.122;19.864;2024-03-25T04:49:11;3.30;61.00
11142;DHT22;5625;50.122;19.864;2024-03-25T04:51:37;3.30;66.90
11142;DHT22;5625;50.122;19.864;2024-03-25T04:54:04;3.30;70.70
11142;DHT22;5625;50.122;19.864;2024-03-25T04:56:30;3.30;69.00
11142;DHT22;5625;50.122;19.864;2024-03-25T04:58:56;3.30;72.80
11142;DHT22;5625;50.122;19.864;2024-03-25T05:01:24;3.30;81.40
11142;DHT22;5625;50.122;19.864;2024-03-25T05:03:50;3.60;99.10
11142;DHT22;5625;50.122;19.864;2024-03-25T05:06:17;3.90;93.70
11142;DHT22;5625;50.122;19.864;2024-03-25T05:08:43;4.30;36.10
11142;DHT22;5625;50.122;19.864;2024-03-25T05:11:09;4.70;1.00
11142;DHT22;5625;50.122;19.864;2024-03-25T05:13:35;5.00;1.00
11142;DHT22;5625;50.122;19.864;2024-03-25T05:16:05;5.00;1.00
11142;DHT22;5625;50.122;19.864;2024-03-25T05:18:35;5.00;1.00
11142;DHT22;5625;50.122;19.864;2024-03-25T05:21:02;4.90;1.00
11142;DHT22;5625;50.122;19.864;2024-03-25T05:23:28;4.90;24.20
11142;DHT22;5625;50.122;19.864;2024-03-25T05:25:54;4.90;43.10
11142;DHT22;5625;50.122;19.864;2024-03-25T05:28:20;4.90;45.70
11142;DHT22;5625;50.122;19.864;2024-03-25T05:30:46;4.80;36.10
11142;DHT22;5625;50.122;19.864;2024-03-25T05:33:13;4.80;22.00
11142;DHT22;5625;50.122;19.864;2024-03-25T05:35:40;4.80;11.70
11142;DHT22;5625;50.122;19.864;2024-03-25T05:38:07;4.80;6.10
11142;DHT22;5625;50.122;19.864;2024-03-25T05:40:33;4.80;2.40
11142;DHT22;5625;50.122;19.864;2024-03-25T05:42:59;4.80;4.10
11142;DHT22;5625;50.122;19.864;2024-03-25T05:45:25;4.80;9.20
11142;DHT22;5625;50.122;19.864;2024-03-25T05:47:51;4.80;9.00
11142;DHT22;5625;50.122;19.864;2024-03-25T05:50:18;4.80;3.20
11142;DHT22;5625;50.122;19.864;2024-03-25T05:52:45;4.80;1.00
11142;DHT22;5625;50.122;19.864;2024-03-25T05:55:11;4.80;1.00
11142;DHT22;5625;50.122;19.864;2024-03-25T05:57:38;4.80;5.10
11142;DHT22;5625;50.122;19.864;2024-03-25T06:00:06;4.80;3.90
11142;DHT22;5625;50.122;19.864;2024-03-25T06:02:32;4.80;2.00
11142;DHT22;5625;50.122;19.864;2024-03-25T06:04:59;4.80;11.20
11142;DHT22;5625;50.122;19.864;2024-03-25T06:07:25;4.80;18.60
11142;DHT22;5625;50.122;19.864;2024-03-25T06:09:53;4.80;23.40
11142;DHT22;5625;50.122;19.864;2024-03-25T06:12:19;4.80;37.70
11142;DHT22;5625;50.122;19.864;2024-03-25T06:14:45;4.80;42.90
11142;DHT22;5625;50.122;19.864;2024-03-25T06:17:11;4.80;48.90
11142;DHT22;5625;50.122;19.864;2024-03-25T06:19:37;4.80;55.60
11142;DHT22;5625;50.122;19.864;2024-03-25T06:22:04;4.80;61.10
11142;DHT22;5625;50.122;19.864;2024-03-25T06:24:30;4.80;55.40
11142;DHT22;5625;50.122;19.864;2024-03-25T06:26:58;4.80;59.30
11142;DHT22;5625;50.122;19.864;2024-03-25T06:29:24;4.80;60.60
11142;DHT22;5625;50.122;19.864;2024-03-25T06:31:50;4.80;71.20
11142;DHT22;5625;50.122;19.864;2024-03-25T06:34:35;4.80;68.80
11142;DHT22;5625;50.122;19.864;2024-03-25T06:37:01;4.80;71.90
11142;DHT22;5625;50.122;19.864;2024-03-25T06:39:27;4.90;77.90
11142;DHT22;5625;50.122;19.864;2024-03-25T06:41:54;4.90;76.30
11142;DHT22;5625;50.122;19.864;2024-03-25T06:44:21;5.00;80.20
11142;DHT22;5625;50.122;19.864;2024-03-25T06:46:47;5.10;73.70
11142;DHT22;5625;50.122;19.864;2024-03-25T06:49:14;5.10;69.50
11142;DHT22;5625;50.122;19.864;2024-03-25T06:51:40;5.10;73.90
11142;DHT22;5625;50.122;19.864;2024-03-25T06:54:06;5.10;84.30
11142;DHT22;5625;50.122;19.864;2024-03-25T06:56:32;5.10;86.70
11142;DHT22;5625;50.122;19.864;2024-03-25T06:58:58;5.20;91.80
11142;DHT22;5625;50.122;19.864;2024-03-25T07:01:26;5.20;95.50
11142;DHT22;5625;50.122;19.864;2024-03-25T07:03:52;5.10;98.30
11142;DHT22;5625;50.122;19.864;2024-03-25T07:06:19;5.20;98.40
11142;DHT22;5625;50.122;19.864;2024-03-25T07:08:45;5.20;98.60
11142;DHT22;5625;50.122;19.864;2024-03-25T07:11:11;5.20;98.30
11142;DHT22;5625;50.122;19.864;2024-03-25T07:13:37;5.20;97.40
11142;DHT22;5625;50.122;19.864;2024-03-25T07:16:04;5.20;99.90
11142;DHT22;5625;50.122;19.864;2024-03-25T07:18:31;5.20;98.90
11142;DHT22;5625;50.122;19.864;2024-03-25T07:20:58;5.20;95.30
11142;DHT22;5625;50.122;19.864;2024-03-25T07:23:24;5.30;94.90
11142;DHT22;5625;50.122;19.864;2024-03-25T07:25:50;5.30;99.40
11142;DHT22;5625;50.122;19.864;2024-03-25T07:28:16;5.40;97.00
11142;DHT22;5625;50.122;19.864;2024-03-25T07:30:43;5.40;99.90
11142;DHT22;5625;50.122;19.864;2024-03-25T07:33:09;5.40;99.90
11142;DHT22;5625;50.122;19.864;2024-03-25T07:35:36;5.40;99.90
11142;DHT22;5625;50.122;19.864;2024-03-25T07:38:03;5.50;99.90
11142;DHT22;5625;50.122;19.864;2024-03-25T07:40:29;5.50;99.90
11142;DHT22;5625;50.122;19.864;2024-03-25T07:42:55;5.50;99.90
11142;DHT22;5625;50.122;19.864;2024-03-25T07:45:22;5.50;99.90
11142;DHT22;5625;50.122;19.864;2024-03-25T07:47:48;5.60;99.90
11142;DHT22;5625;50.122;19.864;2024-03-25T07:50:14;5.60;99.90
11142;DHT22;5625;50.122;19.864;2024-03-25T07:52:42;5.60;99.90
11142;DHT22;5625;50.122;19.864;2024-03-25T07:55:08;5.70;99.90
11142;DHT22;5625;50.122;19.864;2024-03-25T07:57:35;5.70;99.90
11142;DHT22;5625;50.122;19.864;2024-03-25T08:00:01;5.70;99.90
11142;DHT22;5625;50.122;19.864;2024-03-25T08:02:27;5.70;99.90
11142;DHT22;5625;50.122;19.864;2024-03-25T08:04:53;5.80;99.90
11142;DHT22;5625;50.122;19.864;2024-03-25T08:07:20;5.80;99.90
11142;DHT22;5625;50.122;19.864;2024-03-25T08:09:47;5.80;99.90
11142;DHT22;5625;50.122;19.864;2024-03-25T08:12:14;5.80;99.90
11142;DHT22;5625;50.122;19.864;2024-03-25T08:14:40;5.80;99.90
11142;DHT22;5625;50.122;19.864;2024-03-25T08:17:07;5.80;99.90
11142;DHT22;5625;50.122;19.864;2024-03-25T08:19:33;5.80;99.90
11142;DHT22;5625;50.122;19.864;2024-03-25T08:21:59;5.80;99.90
11142;DHT22;5625;50.122;19.864;2024-03-25T08:24:25;5.80;99.90
11142;DHT22;5625;50.122;19.864;2024-03-25T08:26:53;5.80;99.90
11142;DHT22;5625;50.122;19.864;2024-03-25T08:29:19;5.80;99.90
11142;DHT22;5625;50.122;19.864;2024-03-25T08:31:47;5.90;99.90
11142;DHT22;5625;50.122;19.864;2024-03-25T08:34:13;5.90;99.90
11142;DHT22;5625;50.122;19.864;2024-03-25T08:36:39;5.90;99.90
11142;DHT22;5625;50.122;19.864;2024-03-25T08:39:05;6.00;99.90
11142;DHT22;5625;50.122;19.864;2024-03-25T08:41:32;6.00;99.90
11142;DHT22;5625;50.122;19.864;2024-03-25T08:44:00;6.10;99.90
11142;DHT22;5625;50.122;19.864;2024-03-25T08:46:26;6.10;99.90
11142;DHT22;5625;50.122;19.864;2024-03-25T08:48:52;6.10;99.90
11142;DHT22;5625;50.122;19.864;2024-03-25T08:51:19;6.10;99.90
11142;DHT22;5625;50.122;19.864;2024-03-25T08:53:45;6.20;99.90
11142;DHT22;5625;50.122;19.864;2024-03-25T08:56:11;6.20;99.90
11142;DHT22;5625;50.122;19.864;2024-03-25T08:58:37;6.20;99.90
11142;DHT22;5625;50.122;19.864;2024-03-25T09:01:05;6.30;99.90
11142;DHT22;5625;50.122;19.864;2024-03-25T09:03:31;6.30;99.90
11142;DHT22;5625;50.122;19.864;2024-03-25T09:05:57;6.30;99.90
11142;DHT22;5625;50.122;19.864;2024-03-25T09:08:23;6.30;99.90
11142;DHT22;5625;50.122;19.864;2024-03-25T09:10:50;6.30;99.90
11142;DHT22;5625;50.122;19.864;2024-03-25T09:13:31;6.40;99.90
11142;DHT22;5625;50.122;19.864;2024-03-25T09:15:57;6.40;99.90
11142;DHT22;5625;50.122;19.864;2024-03-25T09:18:25;6.40;99.90
11142;DHT22;5625;50.122;19.864;2024-03-25T09:20:51;6.50;99.90
11142;DHT22;5625;50.122;19.864;2024-03-25T09:23:17;6.50;99.90
11142;DHT22;5625;50.122;19.864;2024-03-25T09:25:53;6.60;99.90
11142;DHT22;5625;50.122;19.864;2024-03-25T09:28:20;6.60;99.90
11142;DHT22;5625;50.122;19.864;2024-03-25T09:30:47;6.60;99.90
11142;DHT22;5625;50.122;19.864;2024-03-25T09:33:14;6.70;99.90
11142;DHT22;5625;50.122;19.864;2024-03-25T09:35:41;6.70;99.90
11142;DHT22;5625;50.122;19.864;2024-03-25T09:38:08;6.70;99.90
11142;DHT22;5625;50.122;19.864;2024-03-25T09:40:35;6.70;99.90
11142;DHT22;5625;50.122;19.864;2024-03-25T09:43:03;6.70;99.90
11142;DHT22;5625;50.122;19.864;2024-03-25T09:45:30;6.70;99.90
11142;DHT22;5625;50.122;19.864;2024-03-25T09:47:58;6.60;99.90
11142;DHT22;5625;50.122;19.864;2024-03-25T09:50:24;6.60;99.90
11142;DHT22;5625;50.122;19.864;2024-03-25T09:52:52;6.60;99.90
11142;DHT22;5625;50.122;19.864;2024-03-25T09:55:18;6.60;99.90
11142;DHT22;5625;50.122;19.864;2024-03-25T09:57:44;6.60;99.90
11142;DHT22;5625;50.122;19.864;2024-03-25T10:00:12;6.60;99.90
11142;DHT22;5625;50.122;19.864;2024-03-25T10:02:40;6.70;99.90
11142;DHT22;5625;50.122;19.864;2024-03-25T10:05:07;6.70;99.90
11142;DHT22;5625;50.122;19.864;2024-03-25T10:07:34;6.80;99.90
11142;DHT22;5625;50.122;19.864;2024-03-25T10:10:05;7.10;99.90
11142;DHT22;5625;50.122;19.864;2024-03-25T10:12:31;7.40;99.90
11142;DHT22;5625;50.122;19.864;2024-03-25T10:14:57;7.50;99.90
11142;DHT22;5625;50.122;19.864;2024-03-25T10:17:27;7.60;93.60
11142;DHT22;5625;50.122;19.864;2024-03-25T10:19:54;7.80;71.60
11142;DHT22;5625;50.122;19.864;2024-03-25T10:22:22;8.00;38.90
11142;DHT22;5625;50.122;19.864;2024-03-25T10:24:48;8.30;10.70
11142;DHT22;5625;50.122;19.864;2024-03-25T10:27:19;8.50;14.30
11142;DHT22;5625;50.122;19.864;2024-03-25T10:29:46;8.60;1.00
11142;DHT22;5625;50.122;19.864;2024-03-25T10:32:13;8.90;1.00
11142;DHT22;5625;50.122;19.864;2024-03-25T10:34:39;9.20;1.00
11142;DHT22;5625;50.122;19.864;2024-03-25T10:37:08;9.00;1.00
11142;DHT22;5625;50.122;19.864;2024-03-25T10:39:39;9.00;1.00
11142;DHT22;5625;50.122;19.864;2024-03-25T10:42:10;9.00;1.00
11142;DHT22;5625;50.122;19.864;2024-03-25T10:44:40;8.90;1.00
11142;DHT22;5625;50.122;19.864;2024-03-25T10:47:08;8.90;1.00
11142;DHT22;5625;50.122;19.864;2024-03-25T10:49:41;9.00;1.00
11142;DHT22;5625;50.122;19.864;2024-03-25T10:52:11;9.00;99.90
11142;DHT22;5625;50.122;19.864;2024-03-25T10:54:39;9.00;99.90
11142;DHT22;5625;50.122;19.864;2024-03-25T10:57:07;9.10;99.90
11142;DHT22;5625;50.122;19.864;2024-03-25T10:59:35;9.00;99.90
11142;DHT22;5625;50.122;19.864;2024-03-25T11:02:04;9.00;99.90
11142;DHT22;5625;50.122;19.864;2024-03-25T11:04:31;9.10;99.90
11142;DHT22;5625;50.122;19.864;2024-03-25T11:07:07;9.10;99.90
11142;DHT22;5625;50.122;19.864;2024-03-25T11:09:33;9.10;99.90
11142;DHT22;5625;50.122;19.864;2024-03-25T11:11:59;9.10;99.90
11142;DHT22;5625;50.122;19.864;2024-03-25T11:14:26;9.20;99.90
11142;DHT22;5625;50.122;19.864;2024-03-25T11:16:52;9.10;99.90
11142;DHT22;5625;50.122;19.864;2024-03-25T11:19:21;9.00;1.00
11142;DHT22;5625;50.122;19.864;2024-03-25T11:21:51;8.90;1.00
11142;DHT22;5625;50.122;19.864;2024-03-25T11:24:27;8.80;1.00
11142;DHT22;5625;50.122;19.864;2024-03-25T11:26:53;8.60;99.90
11142;DHT22;5625;50.122;19.864;2024-03-25T11:29:20;8.30;99.90
11142;DHT22;5625;50.122;19.864;2024-03-25T11:31:49;8.20;1.00
11142;DHT22;5625;50.122;19.864;2024-03-25T11:34:15;8.00;1.00
11142;DHT22;5625;50.122;19.864;2024-03-25T11:36:43;8.00;1.00
11142;DHT22;5625;50.122;19.864;2024-03-25T11:39:09;7.90;1.00
11142;DHT22;5625;50.122;19.864;2024-03-25T11:41:39;7.90;1.00
11142;DHT22;5625;50.122;19.864;2024-03-25T11:44:05;7.90;1.00
11142;DHT22;5625;50.122;19.864;2024-03-25T11:46:36;8.00;1.00
11142;DHT22;5625;50.122;19.864;2024-03-25T11:49:05;8.10;1.00
11142;DHT22;5625;50.122;19.864;2024-03-25T11:51:37;8.20;1.00
11142;DHT22;5625;50.122;19.864;2024-03-25T11:54:05;8.40;1.00
11142;DHT22;5625;50.122;19.864;2024-03-25T11:56:31;8.50;1.00
11142;DHT22;5625;50.122;19.864;2024-03-25T11:58:59;8.90;1.00
11142;DHT22;5625;50.122;19.864;2024-03-25T12:01:25;9.40;1.00
11142;DHT22;5625;50.122;19.864;2024-03-25T12:03:51;9.70;1.00
11142;DHT22;5625;50.122;19.864;2024-03-25T12:06:18;9.80;99.90
11142;DHT22;5625;50.122;19.864;2024-03-25T12:08:44;9.70;99.90
11142;DHT22;5625;50.122;19.864;2024-03-25T12:11:12;9.90;99.90
11142;DHT22;5625;50.122;19.864;2024-03-25T12:13:44;9.90;99.90
11142;DHT22;5625;50.122;19.864;2024-03-25T12:16:11;9.50;99.90
11142;DHT22;5625;50.122;19.864;2024-03-25T12:18:40;9.40;99.90
11142;DHT22;5625;50.122;19.864;2024-03-25T12:21:07;9.30;99.90
11142;DHT22;5625;50.122;19.864;2024-03-25T12:23:34;9.10;99.90
11142;DHT22;5625;50.122;19.864;2024-03-25T12:26:01;9.00;1.00
11142;DHT22;5625;50.122;19.864;2024-03-25T12:28:31;8.90;1.00
11142;DHT22;5625;50.122;19.864;2024-03-25T12:30:57;8.80;1.00
11142;DHT22;5625;50.122;19.864;2024-03-25T12:33:24;8.70;1.00
11142;DHT22;5625;50.122;19.864;2024-03-25T12:35:51;8.60;1.00
11142;DHT22;5625;50.122;19.864;2024-03-25T12:38:24;8.50;1.00
11142;DHT22;5625;50.122;19.864;2024-03-25T12:40:51;8.40;1.00
11142;DHT22;5625;50.122;19.864;2024-03-25T12:43:17;8.30;1.00
11142;DHT22;5625;50.122;19.864;2024-03-25T12:45:45;8.30;1.00
11142;DHT22;5625;50.122;19.864;2024-03-25T12:48:11;8.30;1.00
11142;DHT22;5625;50.122;19.864;2024-03-25T12:50:37;8.40;1.00
11142;DHT22;5625;50.122;19.864;2024-03-25T12:53:04;8.40;1.00
11142;DHT22;5625;50.122;19.864;2024-03-25T12:55:30;8.60;1.00
11142;DHT22;5625;50.122;19.864;2024-03-25T12:57:56;9.10;1.00
11142;DHT22;5625;50.122;19.864;2024-03-25T13:00:23;9.50;1.00
11142;DHT22;5625;50.122;19.864;2024-03-25T13:02:50;9.80;99.90
11142;DHT22;5625;50.122;19.864;2024-03-25T13:05:16;10.00;99.90
11142;DHT22;5625;50.122;19.864;2024-03-25T13:07:43;10.20;99.90
11142;DHT22;5625;50.122;19.864;2024-03-25T13:10:09;10.20;98.80
11142;DHT22;5625;50.122;19.864;2024-03-25T13:12:35;10.30;99.90
11142;DHT22;5625;50.122;19.864;2024-03-25T13:15:01;10.30;25.00
11142;DHT22;5625;50.122;19.864;2024-03-25T13:17:27;10.20;99.90
11142;DHT22;5625;50.122;19.864;2024-03-25T13:19:55;10.20;99.90
11142;DHT22;5625;50.122;19.864;2024-03-25T13:22:21;10.20;99.90
11142;DHT22;5625;50.122;19.864;2024-03-25T13:24:48;10.10;99.90
11142;DHT22;5625;50.122;19.864;2024-03-25T13:27:14;10.00;99.90
11142;DHT22;5625;50.122;19.864;2024-03-25T13:29:40;9.90;99.90
11142;DHT22;5625;50.122;19.864;2024-03-25T13:32:06;9.80;99.90
11142;DHT22;5625;50.122;19.864;2024-03-25T13:34:33;9.70;99.90
11142;DHT22;5625;50.122;19.864;2024-03-25T13:37:00;9.60;99.90
11142;DHT22;5625;50.122;19.864;2024-03-25T13:39:26;9.40;99.90
11142;DHT22;5625;50.122;19.864;2024-03-25T13:41:53;9.30;99.90
11142;DHT22;5625;50.122;19.864;2024-03-25T13:44:19;9.20;99.90
11142;DHT22;5625;50.122;19.864;2024-03-25T13:46:45;9.00;99.90
11142;DHT22;5625;50.122;19.864;2024-03-25T13:49:11;8.90;1.00
11142;DHT22;5625;50.122;19.864;2024-03-25T13:51:37;8.80;1.00
11142;DHT22;5625;50.122;19.864;2024-03-25T13:54:05;8.70;1.00
11142;DHT22;5625;50.122;19.864;2024-03-25T13:56:31;8.70;1.00
11142;DHT22;5625;50.122;19.864;2024-03-25T13:58:57;8.90;1.00
11142;DHT22;5625;50.122;19.864;2024-03-25T14:01:23;9.00;33.60
11142;DHT22;5625;50.122;19.864;2024-03-25T14:03:50;9.00;4.20
11142;DHT22;5625;50.122;19.864;2024-03-25T14:06:16;9.10;1.00
11142;DHT22;5625;50.122;19.864;2024-03-25T14:08:42;9.10;1.00
11142;DHT22;5625;50.122;19.864;2024-03-25T14:11:10;9.20;1.00
11142;DHT22;5625;50.122;19.864;2024-03-25T14:13:36;9.30;1.00
11142;DHT22;5625;50.122;19.864;2024-03-25T14:16:03;9.30;1.00
11142;DHT22;5625;50.122;19.864;2024-03-25T14:18:29;9.30;1.00
11142;DHT22;5625;50.122;19.864;2024-03-25T14:20:55;9.20;1.00
11142;DHT22;5625;50.122;19.864;2024-03-25T14:23:21;9.10;1.00
11142;DHT22;5625;50.122;19.864;2024-03-25T14:25:48;9.00;99.90
11142;DHT22;5625;50.122;19.864;2024-03-25T14:28:15;9.00;99.90
11142;DHT22;5625;50.122;19.864;2024-03-25T14:30:42;9.00;1.00
11142;DHT22;5625;50.122;19.864;2024-03-25T14:33:08;8.90;1.00
11142;DHT22;5625;50.122;19.864;2024-03-25T14:35:34;8.80;99.90
11142;DHT22;5625;50.122;19.864;2024-03-25T14:38:00;8.80;1.00
11142;DHT22;5625;50.122;19.864;2024-03-25T14:40:27;8.90;1.00
11142;DHT22;5625;50.122;19.864;2024-03-25T14:42:53;9.00;1.00
11142;DHT22;5625;50.122;19.864;2024-03-25T14:45:20;9.00;1.00
11142;DHT22;5625;50.122;19.864;2024-03-25T14:47:47;9.10;1.00
11142;DHT22;5625;50.122;19.864;2024-03-25T14:50:13;9.10;1.00
11142;DHT22;5625;50.122;19.864;2024-03-25T14:52:39;9.00;1.00
11142;DHT22;5625;50.122;19.864;2024-03-25T14:55:06;9.00;99.90
11142;DHT22;5625;50.122;19.864;2024-03-25T14:57:33;9.00;99.90
11142;DHT22;5625;50.122;19.864;2024-03-25T14:59:59;9.00;1.00
11142;DHT22;5625;50.122;19.864;2024-03-25T15:02:27;9.00;1.00
11142;DHT22;5625;50.122;19.864;2024-03-25T15:04:53;9.00;99.90
11142;DHT22;5625;50.122;19.864;2024-03-25T15:07:19;9.00;1.00
11142;DHT22;5625;50.122;19.864;2024-03-25T15:09:46;8.90;99.90
11142;DHT22;5625;50.122;19.864;2024-03-25T15:12:12;8.90;99.90
11142;DHT22;5625;50.122;19.864;2024-03-25T15:14:38;8.90;99.90
11142;DHT22;5625;50.122;19.864;2024-03-25T15:17:05;8.90;99.90
11142;DHT22;5625;50.122;19.864;2024-03-25T15:19:33;8.90;99.90
11142;DHT22;5625;50.122;19.864;2024-03-25T15:21:59;8.80;1.00
11142;DHT22;5625;50.122;19.864;2024-03-25T15:24:25;8.80;1.00
11142;DHT22;5625;50.122;19.864;2024-03-25T15:26:51;8.70;1.00
11142;DHT22;5625;50.122;19.864;2024-03-25T15:29:18;8.70;1.00
11142;DHT22;5625;50.122;19.864;2024-03-25T15:31:44;8.70;1.00
11142;DHT22;5625;50.122;19.864;2024-03-25T15:34:10;8.60;1.00
11142;DHT22;5625;50.122;19.864;2024-03-25T15:36:38;8.60;1.00
11142;DHT22;5625;50.122;19.864;2024-03-25T15:39:04;8.70;1.00
11142;DHT22;5625;50.122;19.864;2024-03-25T15:41:30;8.60;1.00
11142;DHT22;5625;50.122;19.864;2024-03-25T15:43:57;8.60;1.00
11142;DHT22;5625;50.122;19.864;2024-03-25T15:46:23;8.60;1.00
11142;DHT22;5625;50.122;19.864;2024-03-25T15:48:49;8.50;1.00
11142;DHT22;5625;50.122;19.864;2024-03-25T15:51:15;8.50;1.00